sensor_id;sensor_type;location;lat;lon;timestamp;pressure;altitude;pressure_sealevel;temperature;humidity
50634;BME280;36596;55.798;38.462;2022-07-29T00:01:09;99573.00;;;17.77;100.00
50634;BME280;36596;55.798;38.462;2022-07-29T00:03:39;99577.13;;;17.71;100.00
50634;BME280;36596;55.798;38.462;2022-07-29T00:06:04;99582.66;;;17.71;100.00
50634;BME280;36596;55.798;38.462;2022-07-29T00:08:30;99578.16;;;17.67;100.00
50634;BME280;36596;55.798;38.462;2022-07-29T00:10:59;99582.28;;;17.60;100.00
50634;BME280;36596;55.798;38.462;2022-07-29T00:13:25;99583.31;;;17.56;100.00
50634;BME280;36596;55.798;38.462;2022-07-29T00:15:50;99585.47;;;17.50;100.00
50634;BME280;36596;55.798;38.462;2022-07-29T00:18:16;99590.16;;;17.50;100.00
50634;BME280;36596;55.798;38.462;2022-07-29T00:20:42;99587.72;;;17.48;100.00
50634;BME280;36596;55.798;38.462;2022-07-29T00:23:08;99590.97;;;17.50;100.00
50634;BME280;36596;55.798;38.462;2022-07-29T00:25:34;99596.84;;;17.49;100.00
50634;BME280;36596;55.798;38.462;2022-07-29T00:28:00;99601.00;;;17.55;100.00
50634;BME280;36596;55.798;38.462;2022-07-29T00:30:26;99592.25;;;17.53;100.00
50634;BME280;36596;55.798;38.462;2022-07-29T00:32:52;99586.25;;;17.51;100.00
50634;BME280;36596;55.798;38.462;2022-07-29T00:35:18;99583.84;;;17.49;100.00
50634;BME280;36596;55.798;38.462;2022-07-29T00:38:02;99586.94;;;17.47;100.00
50634;BME280;36596;55.798;38.462;2022-07-29T00:40:28;99602.69;;;17.47;100.00
50634;BME280;36596;55.798;38.462;2022-07-29T00:42:54;99586.47;;;17.45;100.00
50634;BME280;36596;55.798;38.462;2022-07-29T00:45:20;99601.41;;;17.44;100.00
50634;BME280;36596;55.798;38.462;2022-07-29T00:47:47;99607.94;;;17.40;100.00
50634;BME280;36596;55.798;38.462;2022-07-29T00:50:13;99613.53;;;17.31;100.00
50634;BME280;36596;55.798;38.462;2022-07-29T00:52:41;99617.28;;;17.26;100.00
50634;BME280;36596;55.798;38.462;2022-07-29T00:55:11;99611.28;;;17.24;100.00
50634;BME280;36596;55.798;38.462;2022-07-29T00:57:37;99605.03;;;17.15;100.00
50634;BME280;36596;55.798;38.462;2022-07-29T01:00:05;99611.75;;;17.05;100.00
50634;BME280;36596;55.798;38.462;2022-07-29T01:02:34;99609.53;;;16.99;100.00
50634;BME280;36596;55.798;38.462;2022-07-29T01:05:01;99614.78;;;16.91;100.00
50634;BME280;36596;55.798;38.462;2022-07-29T01:07:29;99621.59;;;16.85;100.00
50634;BME280;36596;55.798;38.462;2022-07-29T01:09:56;99621.16;;;16.74;100.00
50634;BME280;36596;55.798;38.462;2022-07-29T01:12:25;99616.97;;;16.68;100.00
50634;BME280;36596;55.798;38.462;2022-07-29T01:14:52;99633.22;;;16.61;100.00
50634;BME280;36596;55.798;38.462;2022-07-29T01:17:28;99618.78;;;16.64;100.00
50634;BME280;36596;55.798;38.462;2022-07-29T01:20:13;99625.25;;;16.68;100.00
50634;BME280;36596;55.798;38.462;2022-07-29T01:22:47;99635.28;;;16.64;100.00
50634;BME280;36596;55.798;38.462;2022-07-29T01:28:49;99631.44;;;16.56;100.00
50634;BME280;36596;55.798;38.462;2022-07-29T01:31:22;99627.13;;;16.47;100.00
50634;BME280;36596;55.798;38.462;2022-07-29T01:33:55;99631.00;;;16.46;100.00
50634;BME280;36596;55.798;38.462;2022-07-29T01:36:32;99637.81;;;16.39;100.00
50634;BME280;36596;55.798;38.462;2022-07-29T01:39:05;99635.41;;;16.38;100.00
50634;BME280;36596;55.798;38.462;2022-07-29T01:41:32;99636.72;;;16.32;100.00
50634;BME280;36596;55.798;38.462;2022-07-29T01:44:11;99633.22;;;16.22;100.00
50634;BME280;36596;55.798;38.462;2022-07-29T01:46:40;99635.47;;;16.12;100.00
50634;BME280;36596;55.798;38.462;2022-07-29T01:49:14;99634.03;;;16.14;100.00
50634;BME280;36596;55.798;38.462;2022-07-29T01:51:51;99647.94;;;16.18;100.00
50634;BME280;36596;55.798;38.462;2022-07-29T01:54:29;99640.81;;;16.17;100.00
50634;BME280;36596;55.798;38.462;2022-07-29T01:56:56;99635.16;;;16.13;100.00
50634;BME280;36596;55.798;38.462;2022-07-29T01:59:25;99626.91;;;16.13;100.00
50634;BME280;36596;55.798;38.462;2022-07-29T02:01:53;99628.66;;;16.18;100.00
50634;BME280;36596;55.798;38.462;2022-07-29T02:04:20;99627.88;;;16.17;100.00
50634;BME280;36596;55.798;38.462;2022-07-29T02:06:48;99629.63;;;16.22;100.00
50634;BME280;36596;55.798;38.462;2022-07-29T02:09:15;99635.13;;;16.22;100.00
50634;BME280;36596;55.798;38.462;2022-07-29T02:11:48;99622.84;;;16.19;100.00
50634;BME280;36596;55.798;38.462;2022-07-29T02:14:18;99628.16;;;16.24;100.00
50634;BME280;36596;55.798;38.462;2022-07-29T02:16:44;99626.38;;;16.29;100.00
50634;BME280;36596;55.798;38.462;2022-07-29T02:19:14;99633.81;;;16.28;100.00
50634;BME280;36596;55.798;38.462;2022-07-29T02:21:41;99619.41;;;16.31;100.00
50634;BME280;36596;55.798;38.462;2022-07-29T02:24:11;99628.94;;;16.34;100.00
50634;BME280;36596;55.798;38.462;2022-07-29T02:26:40;99629.78;;;16.25;100.00
50634;BME280;36596;55.798;38.462;2022-07-29T02:29:06;99630.72;;;16.38;100.00
50634;BME280;36596;55.798;38.462;2022-07-29T02:31:34;99623.16;;;16.18;100.00
50634;BME280;36596;55.798;38.462;2022-07-29T02:34:03;99623.69;;;16.11;100.00
50634;BME280;36596;55.798;38.462;2022-07-29T02:36:31;99636.47;;;16.07;100.00
50634;BME280;36596;55.798;38.462;2022-07-29T02:38:58;99641.19;;;16.06;100.00
50634;BME280;36596;55.798;38.462;2022-07-29T02:41:33;99633.72;;;16.07;100.00
50634;BME280;36596;55.798;38.462;2022-07-29T02:44:09;99632.44;;;16.04;100.00
50634;BME280;36596;55.798;38.462;2022-07-29T02:46:37;99638.25;;;16.03;100.00
50634;BME280;36596;55.798;38.462;2022-07-29T02:49:13;99638.75;;;16.05;100.00
50634;BME280;36596;55.798;38.462;2022-07-29T02:51:53;99636.47;;;16.07;100.00
50634;BME280;36596;55.798;38.462;2022-07-29T02:54:47;99645.69;;;16.11;100.00
50634;BME280;36596;55.798;38.462;2022-07-29T02:57:21;99635.03;;;16.10;100.00
50634;BME280;36596;55.798;38.462;2022-07-29T02:59:51;99631.13;;;16.11;100.00
50634;BME280;36596;55.798;38.462;2022-07-29T03:02:18;99640.53;;;16.10;100.00
50634;BME280;36596;55.798;38.462;2022-07-29T03:04:46;99638.22;;;16.12;100.00
50634;BME280;36596;55.798;38.462;2022-07-29T03:07:15;99641.97;;;16.16;100.00
50634;BME280;36596;55.798;38.462;2022-07-29T03:09:44;99642.44;;;16.18;100.00
50634;BME280;36596;55.798;38.462;2022-07-29T03:12:11;99636.28;;;16.21;100.00
50634;BME280;36596;55.798;38.462;2022-07-29T03:14:38;99642.25;;;16.23;100.00
50634;BME280;36596;55.798;38.462;2022-07-29T03:17:04;99641.44;;;16.31;100.00
50634;BME280;36596;55.798;38.462;2022-07-29T03:19:32;99645.78;;;16.32;100.00
50634;BME280;36596;55.798;38.462;2022-07-29T03:22:02;99651.28;;;16.32;100.00
50634;BME280;36596;55.798;38.462;2022-07-29T03:24:33;99644.66;;;16.33;100.00
50634;BME280;36596;55.798;38.462;2022-07-29T03:27:00;99639.63;;;16.35;100.00
50634;BME280;36596;55.798;38.462;2022-07-29T03:29:26;99631.34;;;16.35;100.00
50634;BME280;36596;55.798;38.462;2022-07-29T03:31:53;99636.69;;;16.40;100.00
50634;BME280;36596;55.798;38.462;2022-07-29T03:34:19;99646.25;;;16.43;100.00
50634;BME280;36596;55.798;38.462;2022-07-29T03:36:46;99644.75;;;16.46;100.00
50634;BME280;36596;55.798;38.462;2022-07-29T03:39:18;99644.47;;;16.47;100.00
50634;BME280;36596;55.798;38.462;2022-07-29T03:41:47;99642.16;;;16.49;100.00
50634;BME280;36596;55.798;38.462;2022-07-29T03:44:16;99639.25;;;16.46;100.00
50634;BME280;36596;55.798;38.462;2022-07-29T03:46:44;99632.28;;;16.48;100.00
50634;BME280;36596;55.798;38.462;2022-07-29T03:49:12;99642.97;;;16.50;100.00
50634;BME280;36596;55.798;38.462;2022-07-29T03:51:40;99632.28;;;16.48;100.00
50634;BME280;36596;55.798;38.462;2022-07-29T03:54:06;99640.72;;;16.52;100.00
50634;BME280;36596;55.798;38.462;2022-07-29T03:56:34;99647.97;;;16.56;100.00
50634;BME280;36596;55.798;38.462;2022-07-29T03:59:03;99647.31;;;16.59;100.00
50634;BME280;36596;55.798;38.462;2022-07-29T04:01:32;99649.41;;;16.63;100.00
50634;BME280;36596;55.798;38.462;2022-07-29T04:04:00;99654.75;;;16.68;100.00
50634;BME280;36596;55.798;38.462;2022-07-29T04:06:26;99644.50;;;16.68;100.00
50634;BME280;36596;55.798;38.462;2022-07-29T04:08:52;99641.56;;;16.73;100.00
50634;BME280;36596;55.798;38.462;2022-07-29T04:11:18;99653.53;;;16.77;100.00
50634;BME280;36596;55.798;38.462;2022-07-29T04:13:44;99638.16;;;16.76;100.00
50634;BME280;36596;55.798;38.462;2022-07-29T04:16:10;99647.34;;;16.81;100.00
50634;BME280;36596;55.798;38.462;2022-07-29T04:18:36;99643.47;;;16.82;100.00
50634;BME280;36596;55.798;38.462;2022-07-29T04:21:02;99642.19;;;16.79;100.00
50634;BME280;36596;55.798;38.462;2022-07-29T04:23:30;99643.31;;;16.87;100.00
50634;BME280;36596;55.798;38.462;2022-07-29T04:25:58;99634.41;;;16.90;100.00
50634;BME280;36596;55.798;38.462;2022-07-29T04:28:26;99639.69;;;16.95;100.00
50634;BME280;36596;55.798;38.462;2022-07-29T04:30:52;99642.88;;;17.06;100.00
50634;BME280;36596;55.798;38.462;2022-07-29T04:33:18;99644.44;;;17.16;100.00
50634;BME280;36596;55.798;38.462;2022-07-29T04:35:43;99657.34;;;17.24;100.00
50634;BME280;36596;55.798;38.462;2022-07-29T04:38:09;99644.38;;;17.24;100.00
50634;BME280;36596;55.798;38.462;2022-07-29T04:40:35;99644.66;;;17.32;100.00
50634;BME280;36596;55.798;38.462;2022-07-29T04:43:01;99646.28;;;17.33;100.00
50634;BME280;36596;55.798;38.462;2022-07-29T04:45:28;99644.91;;;17.39;100.00
50634;BME280;36596;55.798;38.462;2022-07-29T04:47:54;99652.31;;;17.47;100.00
50634;BME280;36596;55.798;38.462;2022-07-29T04:50:23;99660.25;;;17.70;100.00
50634;BME280;36596;55.798;38.462;2022-07-29T04:52:49;99654.78;;;17.61;100.00
50634;BME280;36596;55.798;38.462;2022-07-29T04:55:15;99656.88;;;17.64;100.00
50634;BME280;36596;55.798;38.462;2022-07-29T04:57:41;99646.31;;;17.66;100.00
50634;BME280;36596;55.798;38.462;2022-07-29T05:00:07;99650.50;;;17.72;100.00
50634;BME280;36596;55.798;38.462;2022-07-29T05:02:33;99641.53;;;17.75;100.00
50634;BME280;36596;55.798;38.462;2022-07-29T05:04:59;99646.28;;;17.87;100.00
50634;BME280;36596;55.798;38.462;2022-07-29T05:07:25;99642.34;;;17.97;100.00
50634;BME280;36596;55.798;38.462;2022-07-29T05:09:51;99633.97;;;18.06;100.00
50634;BME280;36596;55.798;38.462;2022-07-29T05:12:24;99628.31;;;18.02;100.00
50634;BME280;36596;55.798;38.462;2022-07-29T05:14:51;99640.50;;;18.01;100.00
50634;BME280;36596;55.798;38.462;2022-07-29T05:17:17;99624.28;;;17.99;100.00
50634;BME280;36596;55.798;38.462;2022-07-29T05:19:43;99636.59;;;18.02;100.00
50634;BME280;36596;55.798;38.462;2022-07-29T05:22:09;99638.47;;;18.10;100.00
50634;BME280;36596;55.798;38.462;2022-07-29T05:24:35;99634.56;;;18.24;100.00
50634;BME280;36596;55.798;38.462;2022-07-29T05:27:01;99639.41;;;18.27;100.00
50634;BME280;36596;55.798;38.462;2022-07-29T05:29:26;99641.63;;;18.33;100.00
50634;BME280;36596;55.798;38.462;2022-07-29T05:31:52;99620.47;;;18.38;100.00
50634;BME280;36596;55.798;38.462;2022-07-29T05:34:19;99630.47;;;18.42;100.00
50634;BME280;36596;55.798;38.462;2022-07-29T05:36:45;99629.53;;;18.50;100.00
50634;BME280;36596;55.798;38.462;2022-07-29T05:39:11;99624.72;;;18.60;100.00
50634;BME280;36596;55.798;38.462;2022-07-29T05:41:38;99626.56;;;18.80;100.00
50634;BME280;36596;55.798;38.462;2022-07-29T05:44:04;99631.88;;;18.98;100.00
50634;BME280;36596;55.798;38.462;2022-07-29T05:46:30;99626.56;;;19.05;100.00
50634;BME280;36596;55.798;38.462;2022-07-29T05:48:56;99622.63;;;19.18;100.00
50634;BME280;36596;55.798;38.462;2022-07-29T05:51:21;99621.44;;;19.32;100.00
50634;BME280;36596;55.798;38.462;2022-07-29T05:53:47;99623.06;;;19.33;100.00
50634;BME280;36596;55.798;38.462;2022-07-29T05:56:13;99618.09;;;19.26;100.00
50634;BME280;36596;55.798;38.462;2022-07-29T05:58:39;99618.81;;;19.23;100.00
50634;BME280;36596;55.798;38.462;2022-07-29T06:01:05;99611.44;;;19.27;100.00
50634;BME280;36596;55.798;38.462;2022-07-29T06:03:31;99619.13;;;19.34;100.00
50634;BME280;36596;55.798;38.462;2022-07-29T06:05:57;99616.22;;;19.43;100.00
50634;BME280;36596;55.798;38.462;2022-07-29T06:08:23;99616.97;;;19.55;100.00
50634;BME280;36596;55.798;38.462;2022-07-29T06:10:49;99611.72;;;19.66;100.00
50634;BME280;36596;55.798;38.462;2022-07-29T06:13:14;99607.03;;;19.67;100.00
50634;BME280;36596;55.798;38.462;2022-07-29T06:15:42;99615.69;;;19.65;100.00
50634;BME280;36596;55.798;38.462;2022-07-29T06:18:08;99612.41;;;19.76;100.00
50634;BME280;36596;55.798;38.462;2022-07-29T06:20:35;99601.91;;;19.81;100.00
50634;BME280;36596;55.798;38.462;2022-07-29T06:23:01;99597.59;;;19.84;100.00
50634;BME280;36596;55.798;38.462;2022-07-29T06:25:30;99614.06;;;19.93;100.00
50634;BME280;36596;55.798;38.462;2022-07-29T06:27:57;99627.03;;;19.88;100.00
50634;BME280;36596;55.798;38.462;2022-07-29T06:30:23;99625.56;;;19.79;100.00
50634;BME280;36596;55.798;38.462;2022-07-29T06:32:49;99609.75;;;19.79;100.00
50634;BME280;36596;55.798;38.462;2022-07-29T06:35:15;99627.38;;;19.87;100.00
50634;BME280;36596;55.798;38.462;2022-07-29T06:37:40;99607.00;;;19.95;100.00
50634;BME280;36596;55.798;38.462;2022-07-29T06:40:06;99605.41;;;20.10;100.00
50634;BME280;36596;55.798;38.462;2022-07-29T06:42:51;99607.75;;;20.08;100.00
50634;BME280;36596;55.798;38.462;2022-07-29T06:45:16;99606.13;;;20.07;100.00
50634;BME280;36596;55.798;38.462;2022-07-29T06:47:42;99611.63;;;20.19;100.00
50634;BME280;36596;55.798;38.462;2022-07-29T06:50:08;99609.09;;;20.30;100.00
50634;BME280;36596;55.798;38.462;2022-07-29T06:52:39;99616.63;;;20.30;100.00
50634;BME280;36596;55.798;38.462;2022-07-29T06:55:06;99640.38;;;20.31;100.00
50634;BME280;36596;55.798;38.462;2022-07-29T06:57:32;99626.09;;;20.29;100.00
50634;BME280;36596;55.798;38.462;2022-07-29T06:59:58;99612.78;;;20.34;100.00
50634;BME280;36596;55.798;38.462;2022-07-29T07:02:24;99622.16;;;20.46;100.00
50634;BME280;36596;55.798;38.462;2022-07-29T07:04:50;99603.91;;;20.60;100.00
50634;BME280;36596;55.798;38.462;2022-07-29T07:07:16;99619.84;;;20.80;100.00
50634;BME280;36596;55.798;38.462;2022-07-29T07:09:42;99608.47;;;20.85;100.00
50634;BME280;36596;55.798;38.462;2022-07-29T07:12:08;99624.91;;;20.93;100.00
50634;BME280;36596;55.798;38.462;2022-07-29T07:14:34;99626.94;;;20.97;100.00
50634;BME280;36596;55.798;38.462;2022-07-29T07:17:00;99627.31;;;20.95;100.00
50634;BME280;36596;55.798;38.462;2022-07-29T07:19:26;99631.66;;;20.76;100.00
50634;BME280;36596;55.798;38.462;2022-07-29T07:21:53;99640.38;;;20.63;100.00
50634;BME280;36596;55.798;38.462;2022-07-29T07:24:19;99625.28;;;20.76;100.00
50634;BME280;36596;55.798;38.462;2022-07-29T07:26:45;99622.59;;;20.95;100.00
50634;BME280;36596;55.798;38.462;2022-07-29T07:29:11;99617.22;;;21.03;100.00
50634;BME280;36596;55.798;38.462;2022-07-29T07:31:37;99630.19;;;20.99;100.00
50634;BME280;36596;55.798;38.462;2022-07-29T07:34:03;99638.69;;;20.90;100.00
50634;BME280;36596;55.798;38.462;2022-07-29T07:36:29;99643.72;;;20.68;100.00
50634;BME280;36596;55.798;38.462;2022-07-29T07:38:55;99635.16;;;20.73;100.00
50634;BME280;36596;55.798;38.462;2022-07-29T07:41:21;99648.81;;;20.82;100.00
50634;BME280;36596;55.798;38.462;2022-07-29T07:43:48;99644.59;;;20.88;100.00
50634;BME280;36596;55.798;38.462;2022-07-29T07:46:14;99633.69;;;20.95;100.00
50634;BME280;36596;55.798;38.462;2022-07-29T07:48:40;99633.75;;;20.99;100.00
50634;BME280;36596;55.798;38.462;2022-07-29T07:51:06;99631.25;;;21.10;100.00
50634;BME280;36596;55.798;38.462;2022-07-29T07:53:33;99631.16;;;21.26;100.00
50634;BME280;36596;55.798;38.462;2022-07-29T07:55:59;99647.97;;;21.33;100.00
50634;BME280;36596;55.798;38.462;2022-07-29T07:58:25;99638.47;;;21.34;100.00
50634;BME280;36596;55.798;38.462;2022-07-29T08:00:51;99651.00;;;21.44;100.00
50634;BME280;36596;55.798;38.462;2022-07-29T08:03:17;99641.06;;;21.43;100.00
50634;BME280;36596;55.798;38.462;2022-07-29T08:05:43;99641.56;;;21.48;100.00
50634;BME280;36596;55.798;38.462;2022-07-29T08:08:09;99631.19;;;21.45;100.00
50634;BME280;36596;55.798;38.462;2022-07-29T08:10:35;99644.34;;;21.48;100.00
50634;BME280;36596;55.798;38.462;2022-07-29T08:13:23;99647.31;;;21.56;100.00
50634;BME280;36596;55.798;38.462;2022-07-29T08:15:50;99641.66;;;21.52;100.00
50634;BME280;36596;55.798;38.462;2022-07-29T08:18:30;99645.94;;;21.66;100.00
50634;BME280;36596;55.798;38.462;2022-07-29T08:20:57;99633.25;;;21.68;100.00
50634;BME280;36596;55.798;38.462;2022-07-29T08:23:23;99640.25;;;21.81;100.00
50634;BME280;36596;55.798;38.462;2022-07-29T08:25:49;99641.50;;;21.84;100.00
50634;BME280;36596;55.798;38.462;2022-07-29T08:28:16;99636.13;;;21.72;100.00
50634;BME280;36596;55.798;38.462;2022-07-29T08:30:43;99630.34;;;21.80;100.00
50634;BME280;36596;55.798;38.462;2022-07-29T08:33:09;99631.16;;;21.81;100.00
50634;BME280;36596;55.798;38.462;2022-07-29T08:35:35;99632.44;;;21.87;100.00
50634;BME280;36596;55.798;38.462;2022-07-29T08:38:01;99639.31;;;21.93;100.00
50634;BME280;36596;55.798;38.462;2022-07-29T08:40:28;99628.28;;;21.97;100.00
50634;BME280;36596;55.798;38.462;2022-07-29T08:42:55;99629.81;;;21.94;100.00
50634;BME280;36596;55.798;38.462;2022-07-29T08:45:22;99636.56;;;22.16;100.00
50634;BME280;36596;55.798;38.462;2022-07-29T08:47:49;99640.06;;;22.13;100.00
50634;BME280;36596;55.798;38.462;2022-07-29T08:50:15;99638.13;;;22.14;100.00
50634;BME280;36596;55.798;38.462;2022-07-29T08:52:41;99637.91;;;22.46;100.00
50634;BME280;36596;55.798;38.462;2022-07-29T08:55:08;99623.94;;;22.65;100.00
50634;BME280;36596;55.798;38.462;2022-07-29T08:57:38;99625.69;;;23.04;100.00
50634;BME280;36596;55.798;38.462;2022-07-29T09:00:06;99640.56;;;23.42;100.00
50634;BME280;36596;55.798;38.462;2022-07-29T09:02:39;99627.59;;;23.57;99.48
50634;BME280;36596;55.798;38.462;2022-07-29T09:05:06;99621.44;;;23.71;96.35
50634;BME280;36596;55.798;38.462;2022-07-29T09:07:32;99610.78;;;23.80;90.75
50634;BME280;36596;55.798;38.462;2022-07-29T09:09:59;99630.38;;;23.87;90.78
50634;BME280;36596;55.798;38.462;2022-07-29T09:12:25;99618.59;;;24.01;89.82
50634;BME280;36596;55.798;38.462;2022-07-29T09:14:51;99620.97;;;23.99;90.11
50634;BME280;36596;55.798;38.462;2022-07-29T09:17:17;99615.69;;;24.32;90.60
50634;BME280;36596;55.798;38.462;2022-07-29T09:19:44;99615.69;;;24.76;85.67
50634;BME280;36596;55.798;38.462;2022-07-29T09:22:09;99614.97;;;24.90;79.41
50634;BME280;36596;55.798;38.462;2022-07-29T09:24:42;99619.88;;;25.08;81.75
50634;BME280;36596;55.798;38.462;2022-07-29T09:27:19;99633.59;;;25.31;73.85
50634;BME280;36596;55.798;38.462;2022-07-29T09:29:47;99633.59;;;25.31;71.67
50634;BME280;36596;55.798;38.462;2022-07-29T09:32:20;99625.56;;;25.26;68.97
50634;BME280;36596;55.798;38.462;2022-07-29T09:34:46;99623.56;;;25.30;73.10
50634;BME280;36596;55.798;38.462;2022-07-29T09:37:25;99636.28;;;24.61;73.40
50634;BME280;36596;55.798;38.462;2022-07-29T09:39:54;99630.94;;;23.70;80.82
50634;BME280;36596;55.798;38.462;2022-07-29T09:42:30;99636.44;;;23.97;81.59
50634;BME280;36596;55.798;38.462;2022-07-29T09:44:58;99623.00;;;24.99;74.08
50634;BME280;36596;55.798;38.462;2022-07-29T09:47:40;99632.53;;;25.68;70.78
50634;BME280;36596;55.798;38.462;2022-07-29T09:50:06;99613.94;;;26.26;69.18
50634;BME280;36596;55.798;38.462;2022-07-29T09:52:47;99623.94;;;26.67;66.69
50634;BME280;36596;55.798;38.462;2022-07-29T09:55:14;99629.69;;;25.50;69.52
50634;BME280;36596;55.798;38.462;2022-07-29T09:57:41;99624.75;;;25.22;73.48
50634;BME280;36596;55.798;38.462;2022-07-29T10:00:13;99624.97;;;25.72;75.12
50634;BME280;36596;55.798;38.462;2022-07-29T10:02:42;99633.03;;;25.04;74.53
50634;BME280;36596;55.798;38.462;2022-07-29T10:05:23;99630.72;;;25.24;75.11
50634;BME280;36596;55.798;38.462;2022-07-29T10:07:54;99639.09;;;26.08;70.08
50634;BME280;36596;55.798;38.462;2022-07-29T10:13:00;99623.53;;;27.05;56.04
50634;BME280;36596;55.798;38.462;2022-07-29T10:15:30;99622.72;;;26.97;58.47
50634;BME280;36596;55.798;38.462;2022-07-29T10:17:59;99642.72;;;26.48;59.99
50634;BME280;36596;55.798;38.462;2022-07-29T10:20:27;99625.75;;;25.69;66.69
50634;BME280;36596;55.798;38.462;2022-07-29T10:22:53;99627.78;;;25.79;68.78
50634;BME280;36596;55.798;38.462;2022-07-29T10:25:20;99626.34;;;26.29;68.65
50634;BME280;36596;55.798;38.462;2022-07-29T10:27:47;99628.34;;;26.72;63.25
50634;BME280;36596;55.798;38.462;2022-07-29T10:30:19;99617.94;;;26.90;62.20
50634;BME280;36596;55.798;38.462;2022-07-29T10:43:55;99614.06;;;27.76;52.50
50634;BME280;36596;55.798;38.462;2022-07-29T10:46:23;99610.66;;;27.36;54.45
50634;BME280;36596;55.798;38.462;2022-07-29T10:49:08;99620.34;;;26.56;62.41
50634;BME280;36596;55.798;38.462;2022-07-29T10:57:21;99645.91;;;27.05;57.52
50634;BME280;36596;55.798;38.462;2022-07-29T10:59:50;99628.25;;;27.26;57.60
50634;BME280;36596;55.798;38.462;2022-07-29T11:07:27;99632.69;;;27.09;56.65
50634;BME280;36596;55.798;38.462;2022-07-29T11:10:28;99622.59;;;27.54;57.29
50634;BME280;36596;55.798;38.462;2022-07-29T11:12:54;99604.13;;;27.64;56.88
50634;BME280;36596;55.798;38.462;2022-07-29T11:15:21;99627.78;;;27.56;54.72
50634;BME280;36596;55.798;38.462;2022-07-29T11:23:00;99634.94;;;27.68;55.34
50634;BME280;36596;55.798;38.462;2022-07-29T11:25:26;99605.81;;;27.29;58.58
50634;BME280;36596;55.798;38.462;2022-07-29T11:27:54;99608.78;;;27.89;57.44
50634;BME280;36596;55.798;38.462;2022-07-29T11:31:03;99623.88;;;29.11;53.07
50634;BME280;36596;55.798;38.462;2022-07-29T11:33:32;99620.63;;;28.22;48.84
50634;BME280;36596;55.798;38.462;2022-07-29T11:36:09;99627.22;;;27.90;54.38
50634;BME280;36596;55.798;38.462;2022-07-29T11:38:38;99640.72;;;26.56;61.20
50634;BME280;36596;55.798;38.462;2022-07-29T11:43:55;99631.94;;;26.86;62.13
50634;BME280;36596;55.798;38.462;2022-07-29T11:49:24;99646.06;;;27.79;55.31
50634;BME280;36596;55.798;38.462;2022-07-29T11:51:55;99634.91;;;27.71;55.28
50634;BME280;36596;55.798;38.462;2022-07-29T11:54:31;99630.81;;;28.50;52.57
50634;BME280;36596;55.798;38.462;2022-07-29T11:56:58;99635.84;;;28.24;52.55
50634;BME280;36596;55.798;38.462;2022-07-29T11:59:24;99623.50;;;28.11;53.48
50634;BME280;36596;55.798;38.462;2022-07-29T12:04:19;99633.03;;;28.24;52.17
50634;BME280;36596;55.798;38.462;2022-07-29T12:06:54;99632.16;;;28.35;51.65
50634;BME280;36596;55.798;38.462;2022-07-29T12:09:20;99634.31;;;28.09;52.71
50634;BME280;36596;55.798;38.462;2022-07-29T12:11:47;99653.81;;;28.31;57.14
50634;BME280;36596;55.798;38.462;2022-07-29T12:14:30;99636.84;;;28.52;59.02
50634;BME280;36596;55.798;38.462;2022-07-29T12:16:57;99623.44;;;28.18;60.38
50634;BME280;36596;55.798;38.462;2022-07-29T12:19:23;99630.22;;;28.77;57.27
50634;BME280;36596;55.798;38.462;2022-07-29T12:21:54;99625.22;;;28.96;52.72
50634;BME280;36596;55.798;38.462;2022-07-29T12:24:23;99627.88;;;28.68;54.90
50634;BME280;36596;55.798;38.462;2022-07-29T12:26:58;99625.22;;;28.96;54.85
50634;BME280;36596;55.798;38.462;2022-07-29T12:29:25;99635.56;;;28.64;57.26
50634;BME280;36596;55.798;38.462;2022-07-29T12:31:57;99637.22;;;27.98;56.41
50634;BME280;36596;55.798;38.462;2022-07-29T12:34:26;99624.69;;;27.14;65.33
50634;BME280;36596;55.798;38.462;2022-07-29T12:36:52;99622.72;;;26.17;71.13
50634;BME280;36596;55.798;38.462;2022-07-29T12:39:18;99620.34;;;26.23;75.46
50634;BME280;36596;55.798;38.462;2022-07-29T12:41:44;99623.78;;;27.53;69.95
50634;BME280;36596;55.798;38.462;2022-07-29T12:44:10;99618.97;;;28.81;62.13
50634;BME280;36596;55.798;38.462;2022-07-29T12:46:37;99631.44;;;28.76;54.74
50634;BME280;36596;55.798;38.462;2022-07-29T12:49:03;99633.25;;;28.45;50.82
50634;BME280;36596;55.798;38.462;2022-07-29T12:51:37;99632.28;;;28.73;53.16
50634;BME280;36596;55.798;38.462;2022-07-29T12:54:06;99639.41;;;28.81;50.83
50634;BME280;36596;55.798;38.462;2022-07-29T12:56:33;99633.66;;;29.34;50.91
50634;BME280;36596;55.798;38.462;2022-07-29T12:58:59;99621.56;;;29.71;49.08
50634;BME280;36596;55.798;38.462;2022-07-29T13:01:25;99625.00;;;29.52;49.30
50634;BME280;36596;55.798;38.462;2022-07-29T13:03:59;99621.88;;;28.14;53.29
50634;BME280;36596;55.798;38.462;2022-07-29T13:06:45;99631.69;;;27.73;58.22
50634;BME280;36596;55.798;38.462;2022-07-29T13:09:14;99633.00;;;27.50;56.38
50634;BME280;36596;55.798;38.462;2022-07-29T13:11:46;99629.84;;;27.41;58.38
50634;BME280;36596;55.798;38.462;2022-07-29T13:14:14;99631.94;;;28.07;57.98
50634;BME280;36596;55.798;38.462;2022-07-29T13:22:15;99631.41;;;29.56;45.79
50634;BME280;36596;55.798;38.462;2022-07-29T13:24:58;99633.31;;;29.62;47.13
50634;BME280;36596;55.798;38.462;2022-07-29T13:27:26;99628.44;;;28.94;50.77
50634;BME280;36596;55.798;38.462;2022-07-29T13:29:54;99636.03;;;27.85;56.51
50634;BME280;36596;55.798;38.462;2022-07-29T13:32:24;99644.63;;;27.49;60.53
50634;BME280;36596;55.798;38.462;2022-07-29T13:34:51;99645.13;;;26.72;65.71
50634;BME280;36596;55.798;38.462;2022-07-29T13:37:18;99638.28;;;26.08;69.96